sensor_id;sensor_type;location;lat;lon;timestamp;P1;durP1;ratioP1;P2;durP2;ratioP2
38653;SDS011;24413;52.450;20.706;2022-10-26T00:02:06;38.77;;;25.30;;
38653;SDS011;24413;52.450;20.706;2022-10-26T00:04:32;35.78;;;23.98;;
38653;SDS011;24413;52.450;20.706;2022-10-26T00:06:57;37.00;;;25.25;;
38653;SDS011;24413;52.450;20.706;2022-10-26T00:09:22;34.23;;;25.20;;
38653;SDS011;24413;52.450;20.706;2022-10-26T00:11:47;39.30;;;23.33;;
38653;SDS011;24413;52.450;20.706;2022-10-26T00:14:13;36.70;;;24.57;;
38653;SDS011;24413;52.450;20.706;2022-10-26T00:16:38;32.23;;;23.93;;
38653;SDS011;24413;52.450;20.706;2022-10-26T00:19:03;39.57;;;26.27;;
38653;SDS011;24413;52.450;20.706;2022-10-26T00:21:28;44.93;;;24.87;;
38653;SDS011;24413;52.450;20.706;2022-10-26T00:23:53;33.57;;;24.43;;
38653;SDS011;24413;52.450;20.706;2022-10-26T00:26:19;36.70;;;25.73;;
38653;SDS011;24413;52.450;20.706;2022-10-26T00:28:44;29.00;;;24.48;;
38653;SDS011;24413;52.450;20.706;2022-10-26T00:31:13;35.97;;;23.63;;
38653;SDS011;24413;52.450;20.706;2022-10-26T00:33:38;38.67;;;23.75;;
38653;SDS011;24413;52.450;20.706;2022-10-26T00:36:03;34.67;;;23.53;;
38653;SDS011;24413;52.450;20.706;2022-10-26T00:38:28;38.78;;;25.17;;
38653;SDS011;24413;52.450;20.706;2022-10-26T00:40:54;36.28;;;24.73;;
38653;SDS011;24413;52.450;20.706;2022-10-26T00:45:50;32.30;;;24.60;;
38653;SDS011;24413;52.450;20.706;2022-10-26T00:48:19;34.10;;;22.50;;
38653;SDS011;24413;52.450;20.706;2022-10-26T00:50:46;35.00;;;23.67;;
38653;SDS011;24413;52.450;20.706;2022-10-26T00:53:11;35.42;;;23.30;;
38653;SDS011;24413;52.450;20.706;2022-10-26T00:55:37;38.58;;;23.90;;
38653;SDS011;24413;52.450;20.706;2022-10-26T00:58:05;30.88;;;24.50;;
38653;SDS011;24413;52.450;20.706;2022-10-26T01:00:30;35.03;;;24.77;;
38653;SDS011;24413;52.450;20.706;2022-10-26T01:02:56;34.05;;;26.13;;
38653;SDS011;24413;52.450;20.706;2022-10-26T01:05:23;37.58;;;23.95;;
38653;SDS011;24413;52.450;20.706;2022-10-26T01:07:50;36.53;;;26.02;;
38653;SDS011;24413;52.450;20.706;2022-10-26T01:10:15;35.70;;;25.42;;
38653;SDS011;24413;52.450;20.706;2022-10-26T01:12:40;30.55;;;25.58;;
38653;SDS011;24413;52.450;20.706;2022-10-26T01:15:06;42.17;;;27.15;;
38653;SDS011;24413;52.450;20.706;2022-10-26T01:25:05;45.65;;;29.63;;
38653;SDS011;24413;52.450;20.706;2022-10-26T01:27:48;39.80;;;29.20;;
38653;SDS011;24413;52.450;20.706;2022-10-26T01:35:15;40.78;;;26.38;;
38653;SDS011;24413;52.450;20.706;2022-10-26T01:37:44;32.00;;;25.92;;
38653;SDS011;24413;52.450;20.706;2022-10-26T01:40:15;32.08;;;25.65;;
38653;SDS011;24413;52.450;20.706;2022-10-26T01:42:43;42.20;;;25.90;;
38653;SDS011;24413;52.450;20.706;2022-10-26T01:45:12;42.25;;;25.27;;
38653;SDS011;24413;52.450;20.706;2022-10-26T01:47:38;39.42;;;25.98;;
38653;SDS011;24413;52.450;20.706;2022-10-26T01:50:04;32.63;;;24.23;;
38653;SDS011;24413;52.450;20.706;2022-10-26T01:52:31;35.58;;;25.52;;
38653;SDS011;24413;52.450;20.706;2022-10-26T01:55:00;40.90;;;27.20;;
38653;SDS011;24413;52.450;20.706;2022-10-26T01:57:25;43.05;;;25.92;;
38653;SDS011;24413;52.450;20.706;2022-10-26T02:15:19;47.63;;;31.08;;
38653;SDS011;24413;52.450;20.706;2022-10-26T02:20:20;49.05;;;32.80;;
38653;SDS011;24413;52.450;20.706;2022-10-26T02:22:46;44.88;;;32.97;;
38653;SDS011;24413;52.450;20.706;2022-10-26T02:25:16;55.55;;;34.78;;
38653;SDS011;24413;52.450;20.706;2022-10-26T02:27:44;46.95;;;33.25;;
38653;SDS011;24413;52.450;20.706;2022-10-26T02:30:11;48.97;;;34.10;;
38653;SDS011;24413;52.450;20.706;2022-10-26T02:32:37;53.08;;;34.20;;
38653;SDS011;24413;52.450;20.706;2022-10-26T02:35:04;62.50;;;36.13;;
38653;SDS011;24413;52.450;20.706;2022-10-26T02:37:30;54.83;;;35.40;;
38653;SDS011;24413;52.450;20.706;2022-10-26T02:39:56;49.35;;;31.90;;
38653;SDS011;24413;52.450;20.706;2022-10-26T02:42:24;54.22;;;31.73;;
38653;SDS011;24413;52.450;20.706;2022-10-26T02:44:52;50.60;;;32.67;;
38653;SDS011;24413;52.450;20.706;2022-10-26T02:47:18;48.30;;;33.72;;
38653;SDS011;24413;52.450;20.706;2022-10-26T02:49:43;52.30;;;33.40;;
38653;SDS011;24413;52.450;20.706;2022-10-26T02:52:10;48.97;;;34.47;;
38653;SDS011;24413;52.450;20.706;2022-10-26T02:54:43;48.70;;;34.25;;
38653;SDS011;24413;52.450;20.706;2022-10-26T02:59:55;54.60;;;36.78;;
38653;SDS011;24413;52.450;20.706;2022-10-26T03:02:21;49.95;;;36.38;;
38653;SDS011;24413;52.450;20.706;2022-10-26T03:04:48;54.00;;;36.80;;
38653;SDS011;24413;52.450;20.706;2022-10-26T03:07:18;57.80;;;37.00;;
38653;SDS011;24413;52.450;20.706;2022-10-26T03:09:44;52.45;;;35.90;;
38653;SDS011;24413;52.450;20.706;2022-10-26T03:12:09;53.23;;;36.80;;
38653;SDS011;24413;52.450;20.706;2022-10-26T03:14:34;53.53;;;35.90;;
38653;SDS011;24413;52.450;20.706;2022-10-26T03:16:59;62.33;;;37.33;;
38653;SDS011;24413;52.450;20.706;2022-10-26T03:19:25;53.93;;;36.47;;
38653;SDS011;24413;52.450;20.706;2022-10-26T03:21:50;53.73;;;37.13;;
38653;SDS011;24413;52.450;20.706;2022-10-26T03:24:15;48.17;;;35.90;;
38653;SDS011;24413;52.450;20.706;2022-10-26T03:26:40;60.37;;;36.23;;
38653;SDS011;24413;52.450;20.706;2022-10-26T03:29:05;55.60;;;34.27;;
38653;SDS011;24413;52.450;20.706;2022-10-26T03:31:32;45.08;;;31.25;;
38653;SDS011;24413;52.450;20.706;2022-10-26T03:33:58;46.77;;;30.03;;
38653;SDS011;24413;52.450;20.706;2022-10-26T03:36:23;45.27;;;30.77;;
38653;SDS011;24413;52.450;20.706;2022-10-26T03:38:48;46.43;;;31.13;;
38653;SDS011;24413;52.450;20.706;2022-10-26T03:41:13;42.93;;;29.67;;
38653;SDS011;24413;52.450;20.706;2022-10-26T03:43:38;52.37;;;32.97;;
38653;SDS011;24413;52.450;20.706;2022-10-26T03:46:04;44.80;;;30.98;;
38653;SDS011;24413;52.450;20.706;2022-10-26T03:48:29;38.72;;;28.60;;
38653;SDS011;24413;52.450;20.706;2022-10-26T03:50:57;39.27;;;30.27;;
38653;SDS011;24413;52.450;20.706;2022-10-26T03:53:23;48.22;;;29.92;;
38653;SDS011;24413;52.450;20.706;2022-10-26T03:55:48;48.60;;;31.63;;
38653;SDS011;24413;52.450;20.706;2022-10-26T03:58:14;39.30;;;29.83;;
38653;SDS011;24413;52.450;20.706;2022-10-26T04:00:39;40.87;;;29.63;;
38653;SDS011;24413;52.450;20.706;2022-10-26T04:03:04;45.85;;;29.02;;
38653;SDS011;24413;52.450;20.706;2022-10-26T04:05:29;55.40;;;31.47;;
38653;SDS011;24413;52.450;20.706;2022-10-26T04:07:55;49.95;;;29.17;;
38653;SDS011;24413;52.450;20.706;2022-10-26T04:10:21;39.88;;;27.83;;
38653;SDS011;24413;52.450;20.706;2022-10-26T04:12:47;43.08;;;28.17;;
38653;SDS011;24413;52.450;20.706;2022-10-26T04:15:12;39.67;;;27.60;;
38653;SDS011;24413;52.450;20.706;2022-10-26T04:17:37;41.15;;;27.15;;
38653;SDS011;24413;52.450;20.706;2022-10-26T04:20:03;44.57;;;29.47;;
38653;SDS011;24413;52.450;20.706;2022-10-26T04:22:28;49.60;;;27.55;;
38653;SDS011;24413;52.450;20.706;2022-10-26T04:24:53;37.97;;;26.92;;
38653;SDS011;24413;52.450;20.706;2022-10-26T04:27:18;45.92;;;27.83;;
38653;SDS011;24413;52.450;20.706;2022-10-26T04:29:44;39.37;;;25.50;;
38653;SDS011;24413;52.450;20.706;2022-10-26T04:32:09;42.83;;;26.93;;
38653;SDS011;24413;52.450;20.706;2022-10-26T04:34:34;37.50;;;24.97;;
38653;SDS011;24413;52.450;20.706;2022-10-26T04:36:59;31.77;;;25.47;;
38653;SDS011;24413;52.450;20.706;2022-10-26T04:39:24;36.47;;;26.93;;
38653;SDS011;24413;52.450;20.706;2022-10-26T04:41:50;43.83;;;27.65;;
38653;SDS011;24413;52.450;20.706;2022-10-26T04:44:15;36.10;;;26.08;;
38653;SDS011;24413;52.450;20.706;2022-10-26T04:46:40;36.43;;;25.80;;
38653;SDS011;24413;52.450;20.706;2022-10-26T04:49:05;37.67;;;26.37;;
38653;SDS011;24413;52.450;20.706;2022-10-26T04:51:30;38.03;;;27.60;;
38653;SDS011;24413;52.450;20.706;2022-10-26T04:53:56;35.20;;;26.87;;
38653;SDS011;24413;52.450;20.706;2022-10-26T04:56:22;36.95;;;26.77;;
38653;SDS011;24413;52.450;20.706;2022-10-26T04:58:47;40.03;;;26.40;;
38653;SDS011;24413;52.450;20.706;2022-10-26T05:01:12;31.87;;;24.63;;
38653;SDS011;24413;52.450;20.706;2022-10-26T05:03:37;40.80;;;26.97;;
38653;SDS011;24413;52.450;20.706;2022-10-26T05:06:03;36.23;;;25.93;;
38653;SDS011;24413;52.450;20.706;2022-10-26T05:08:28;39.90;;;25.85;;
38653;SDS011;24413;52.450;20.706;2022-10-26T05:10:53;36.60;;;26.63;;
38653;SDS011;24413;52.450;20.706;2022-10-26T05:13:19;38.30;;;25.23;;
38653;SDS011;24413;52.450;20.706;2022-10-26T05:15:44;38.92;;;25.83;;
38653;SDS011;24413;52.450;20.706;2022-10-26T05:18:09;36.43;;;26.47;;
38653;SDS011;24413;52.450;20.706;2022-10-26T05:20:35;37.95;;;25.20;;
38653;SDS011;24413;52.450;20.706;2022-10-26T05:23:01;40.38;;;26.70;;
38653;SDS011;24413;52.450;20.706;2022-10-26T05:25:27;40.88;;;26.73;;
38653;SDS011;24413;52.450;20.706;2022-10-26T05:27:56;36.40;;;25.38;;
38653;SDS011;24413;52.450;20.706;2022-10-26T05:30:22;34.80;;;24.88;;
38653;SDS011;24413;52.450;20.706;2022-10-26T05:32:54;35.77;;;24.10;;
38653;SDS011;24413;52.450;20.706;2022-10-26T05:35:19;33.38;;;25.70;;
38653;SDS011;24413;52.450;20.706;2022-10-26T05:37:44;37.97;;;24.35;;
38653;SDS011;24413;52.450;20.706;2022-10-26T05:40:09;40.20;;;25.90;;
38653;SDS011;24413;52.450;20.706;2022-10-26T05:42:35;37.33;;;26.48;;
38653;SDS011;24413;52.450;20.706;2022-10-26T05:45:00;39.77;;;25.80;;
38653;SDS011;24413;52.450;20.706;2022-10-26T05:47:25;40.03;;;25.63;;
38653;SDS011;24413;52.450;20.706;2022-10-26T05:49:50;47.33;;;31.80;;
38653;SDS011;24413;52.450;20.706;2022-10-26T05:52:16;51.70;;;35.10;;
38653;SDS011;24413;52.450;20.706;2022-10-26T05:54:41;50.53;;;35.17;;
38653;SDS011;24413;52.450;20.706;2022-10-26T05:57:09;58.83;;;35.77;;
38653;SDS011;24413;52.450;20.706;2022-10-26T05:59:35;47.03;;;32.53;;
38653;SDS011;24413;52.450;20.706;2022-10-26T06:02:03;50.47;;;31.60;;
38653;SDS011;24413;52.450;20.706;2022-10-26T06:06:55;42.87;;;31.23;;
38653;SDS011;24413;52.450;20.706;2022-10-26T06:09:21;52.63;;;30.85;;
38653;SDS011;24413;52.450;20.706;2022-10-26T06:11:47;48.08;;;30.65;;
38653;SDS011;24413;52.450;20.706;2022-10-26T06:14:12;52.67;;;32.50;;
38653;SDS011;24413;52.450;20.706;2022-10-26T06:19:12;45.90;;;35.25;;
38653;SDS011;24413;52.450;20.706;2022-10-26T06:21:43;54.33;;;35.50;;
38653;SDS011;24413;52.450;20.706;2022-10-26T06:24:21;56.08;;;36.35;;
38653;SDS011;24413;52.450;20.706;2022-10-26T06:27:33;45.50;;;34.00;;
38653;SDS011;24413;52.450;20.706;2022-10-26T06:32:06;45.17;;;32.00;;
38653;SDS011;24413;52.450;20.706;2022-10-26T06:34:32;51.75;;;34.90;;
38653;SDS011;24413;52.450;20.706;2022-10-26T06:36:58;46.47;;;34.50;;
38653;SDS011;24413;52.450;20.706;2022-10-26T06:39:24;48.15;;;34.92;;
38653;SDS011;24413;52.450;20.706;2022-10-26T06:41:51;42.33;;;31.75;;
38653;SDS011;24413;52.450;20.706;2022-10-26T06:44:22;48.67;;;31.42;;
38653;SDS011;24413;52.450;20.706;2022-10-26T06:49:30;37.05;;;26.88;;
38653;SDS011;24413;52.450;20.706;2022-10-26T06:55:06;44.83;;;26.38;;
38653;SDS011;24413;52.450;20.706;2022-10-26T06:57:14;37.65;;;28.02;;
38653;SDS011;24413;52.450;20.706;2022-10-26T06:59:44;38.85;;;27.35;;
38653;SDS011;24413;52.450;20.706;2022-10-26T07:02:11;38.55;;;26.50;;
38653;SDS011;24413;52.450;20.706;2022-10-26T07:04:42;39.83;;;25.88;;
38653;SDS011;24413;52.450;20.706;2022-10-26T07:07:08;44.08;;;26.23;;
38653;SDS011;24413;52.450;20.706;2022-10-26T07:09:35;42.13;;;24.35;;
38653;SDS011;24413;52.450;20.706;2022-10-26T07:12:01;34.77;;;22.50;;
38653;SDS011;24413;52.450;20.706;2022-10-26T07:14:26;31.13;;;20.90;;
38653;SDS011;24413;52.450;20.706;2022-10-26T07:16:51;40.27;;;25.17;;
38653;SDS011;24413;52.450;20.706;2022-10-26T07:19:17;30.92;;;19.58;;
38653;SDS011;24413;52.450;20.706;2022-10-26T07:21:42;34.57;;;22.87;;
38653;SDS011;24413;52.450;20.706;2022-10-26T07:24:07;40.47;;;24.90;;
38653;SDS011;24413;52.450;20.706;2022-10-26T07:26:35;44.58;;;24.90;;
38653;SDS011;24413;52.450;20.706;2022-10-26T07:29:03;36.97;;;23.20;;
38653;SDS011;24413;52.450;20.706;2022-10-26T07:31:28;39.08;;;23.35;;
38653;SDS011;24413;52.450;20.706;2022-10-26T07:33:53;49.60;;;25.80;;
38653;SDS011;24413;52.450;20.706;2022-10-26T07:36:18;36.95;;;23.88;;
38653;SDS011;24413;52.450;20.706;2022-10-26T07:38:44;37.08;;;22.67;;
38653;SDS011;24413;52.450;20.706;2022-10-26T07:41:09;40.67;;;23.98;;
38653;SDS011;24413;52.450;20.706;2022-10-26T07:43:34;35.40;;;21.87;;
38653;SDS011;24413;52.450;20.706;2022-10-26T07:45:59;33.87;;;20.03;;
38653;SDS011;24413;52.450;20.706;2022-10-26T07:48:25;30.77;;;21.07;;
38653;SDS011;24413;52.450;20.706;2022-10-26T07:50:50;38.40;;;21.77;;
38653;SDS011;24413;52.450;20.706;2022-10-26T07:53:15;36.67;;;22.43;;
38653;SDS011;24413;52.450;20.706;2022-10-26T07:55:40;37.97;;;22.03;;
38653;SDS011;24413;52.450;20.706;2022-10-26T07:58:05;37.97;;;24.60;;
38653;SDS011;24413;52.450;20.706;2022-10-26T08:00:30;59.50;;;25.70;;
38653;SDS011;24413;52.450;20.706;2022-10-26T08:02:56;39.17;;;22.40;;
38653;SDS011;24413;52.450;20.706;2022-10-26T08:05:21;43.87;;;24.90;;
38653;SDS011;24413;52.450;20.706;2022-10-26T08:07:47;51.33;;;24.85;;
38653;SDS011;24413;52.450;20.706;2022-10-26T08:10:12;40.65;;;26.52;;
38653;SDS011;24413;52.450;20.706;2022-10-26T08:12:38;49.63;;;26.40;;
38653;SDS011;24413;52.450;20.706;2022-10-26T08:15:03;49.92;;;26.98;;
38653;SDS011;24413;52.450;20.706;2022-10-26T08:17:29;46.28;;;26.83;;
38653;SDS011;24413;52.450;20.706;2022-10-26T08:19:54;47.10;;;26.87;;
38653;SDS011;24413;52.450;20.706;2022-10-26T08:22:19;44.87;;;26.87;;
38653;SDS011;24413;52.450;20.706;2022-10-26T08:24:44;49.60;;;26.97;;
38653;SDS011;24413;52.450;20.706;2022-10-26T08:27:11;41.78;;;26.08;;
38653;SDS011;24413;52.450;20.706;2022-10-26T08:29:36;46.65;;;27.65;;
38653;SDS011;24413;52.450;20.706;2022-10-26T08:32:01;37.30;;;24.87;;
38653;SDS011;24413;52.450;20.706;2022-10-26T08:34:27;35.17;;;23.93;;
38653;SDS011;24413;52.450;20.706;2022-10-26T08:36:52;37.23;;;24.13;;
38653;SDS011;24413;52.450;20.706;2022-10-26T08:39:17;39.10;;;22.92;;
38653;SDS011;24413;52.450;20.706;2022-10-26T08:41:43;39.87;;;22.97;;
38653;SDS011;24413;52.450;20.706;2022-10-26T08:44:17;34.75;;;21.30;;
38653;SDS011;24413;52.450;20.706;2022-10-26T08:46:47;34.83;;;22.73;;
38653;SDS011;24413;52.450;20.706;2022-10-26T08:49:17;34.33;;;22.92;;
38653;SDS011;24413;52.450;20.706;2022-10-26T08:51:43;34.58;;;20.02;;
38653;SDS011;24413;52.450;20.706;2022-10-26T08:56:37;25.00;;;17.30;;
38653;SDS011;24413;52.450;20.706;2022-10-26T08:59:06;29.15;;;18.90;;
38653;SDS011;24413;52.450;20.706;2022-10-26T09:01:34;29.02;;;18.15;;
38653;SDS011;24413;52.450;20.706;2022-10-26T09:04:00;37.63;;;19.67;;
38653;SDS011;24413;52.450;20.706;2022-10-26T09:09:42;39.38;;;23.60;;
38653;SDS011;24413;52.450;20.706;2022-10-26T09:24:56;41.00;;;21.45;;
38653;SDS011;24413;52.450;20.706;2022-10-26T09:27:27;35.92;;;22.38;;
38653;SDS011;24413;52.450;20.706;2022-10-26T09:29:54;44.25;;;23.17;;
38653;SDS011;24413;52.450;20.706;2022-10-26T09:32:20;38.20;;;22.27;;
38653;SDS011;24413;52.450;20.706;2022-10-26T09:34:48;38.97;;;22.08;;
38653;SDS011;24413;52.450;20.706;2022-10-26T09:37:19;41.38;;;25.00;;
38653;SDS011;24413;52.450;20.706;2022-10-26T09:39:46;35.63;;;23.95;;
38653;SDS011;24413;52.450;20.706;2022-10-26T09:42:18;43.45;;;25.05;;
38653;SDS011;24413;52.450;20.706;2022-10-26T09:44:53;43.85;;;25.42;;
38653;SDS011;24413;52.450;20.706;2022-10-26T09:47:28;36.38;;;23.88;;
38653;SDS011;24413;52.450;20.706;2022-10-26T09:50:16;40.78;;;21.17;;
38653;SDS011;24413;52.450;20.706;2022-10-26T09:52:39;29.80;;;20.13;;
38653;SDS011;24413;52.450;20.706;2022-10-26T09:55:05;41.73;;;24.73;;
38653;SDS011;24413;52.450;20.706;2022-10-26T09:57:30;46.28;;;26.55;;
38653;SDS011;24413;52.450;20.706;2022-10-26T09:59:55;47.58;;;27.00;;
38653;SDS011;24413;52.450;20.706;2022-10-26T10:02:40;37.50;;;26.02;;
38653;SDS011;24413;52.450;20.706;2022-10-26T10:08:25;41.03;;;26.55;;
38653;SDS011;24413;52.450;20.706;2022-10-26T10:13:20;46.60;;;27.52;;
38653;SDS011;24413;52.450;20.706;2022-10-26T10:15:50;51.70;;;26.95;;
38653;SDS011;24413;52.450;20.706;2022-10-26T10:18:19;38.70;;;22.80;;
38653;SDS011;24413;52.450;20.706;2022-10-26T10:20:49;42.30;;;21.40;;
38653;SDS011;24413;52.450;20.706;2022-10-26T10:23:22;38.38;;;21.45;;
38653;SDS011;24413;52.450;20.706;2022-10-26T10:25:48;45.30;;;23.13;;
38653;SDS011;24413;52.450;20.706;2022-10-26T10:28:22;35.03;;;21.40;;
38653;SDS011;24413;52.450;20.706;2022-10-26T10:30:52;30.75;;;20.75;;
38653;SDS011;24413;52.450;20.706;2022-10-26T10:33:18;31.70;;;21.00;;
38653;SDS011;24413;52.450;20.706;2022-10-26T10:35:47;43.75;;;23.30;;
38653;SDS011;24413;52.450;20.706;2022-10-26T10:38:15;40.67;;;23.73;;
38653;SDS011;24413;52.450;20.706;2022-10-26T10:40:41;39.85;;;23.92;;
38653;SDS011;24413;52.450;20.706;2022-10-26T10:43:13;45.22;;;26.20;;
38653;SDS011;24413;52.450;20.706;2022-10-26T10:45:39;41.20;;;25.65;;
38653;SDS011;24413;52.450;20.706;2022-10-26T10:50:36;43.80;;;25.15;;
38653;SDS011;24413;52.450;20.706;2022-10-26T10:53:12;45.00;;;26.45;;
38653;SDS011;24413;52.450;20.706;2022-10-26T10:55:37;38.63;;;23.88;;
38653;SDS011;24413;52.450;20.706;2022-10-26T10:58:14;43.90;;;23.87;;
38653;SDS011;24413;52.450;20.706;2022-10-26T11:00:42;46.47;;;25.65;;
38653;SDS011;24413;52.450;20.706;2022-10-26T11:03:23;42.75;;;24.27;;
38653;SDS011;24413;52.450;20.706;2022-10-26T11:10:46;40.57;;;21.33;;
38653;SDS011;24413;52.450;20.706;2022-10-26T11:13:19;39.33;;;21.33;;
38653;SDS011;24413;52.450;20.706;2022-10-26T11:15:46;36.30;;;20.02;;
38653;SDS011;24413;52.450;20.706;2022-10-26T11:18:15;36.47;;;20.35;;
38653;SDS011;24413;52.450;20.706;2022-10-26T11:20:44;37.38;;;20.33;;
38653;SDS011;24413;52.450;20.706;2022-10-26T11:23:13;33.50;;;18.58;;
38653;SDS011;24413;52.450;20.706;2022-10-26T11:25:43;30.80;;;18.55;;
38653;SDS011;24413;52.450;20.706;2022-10-26T11:28:14;27.85;;;18.02;;
38653;SDS011;24413;52.450;20.706;2022-10-26T11:30:42;26.25;;;18.55;;
38653;SDS011;24413;52.450;20.706;2022-10-26T11:33:10;35.92;;;19.95;;
38653;SDS011;24413;52.450;20.706;2022-10-26T11:35:45;34.83;;;20.65;;
38653;SDS011;24413;52.450;20.706;2022-10-26T11:38:18;33.43;;;21.10;;
38653;SDS011;24413;52.450;20.706;2022-10-26T11:43:18;34.22;;;20.13;;
38653;SDS011;24413;52.450;20.706;2022-10-26T11:45:49;32.42;;;19.33;;
38653;SDS011;24413;52.450;20.706;2022-10-26T11:48:29;30.27;;;19.40;;
38653;SDS011;24413;52.450;20.706;2022-10-26T11:50:56;27.77;;;18.00;;
38653;SDS011;24413;52.450;20.706;2022-10-26T11:53:27;32.70;;;18.30;;
38653;SDS011;24413;52.450;20.706;2022-10-26T11:55:53;25.52;;;18.33;;
38653;SDS011;24413;52.450;20.706;2022-10-26T11:58:23;28.98;;;17.55;;
38653;SDS011;24413;52.450;20.706;2022-10-26T12:01:02;28.88;;;16.33;;
38653;SDS011;24413;52.450;20.706;2022-10-26T12:03:32;26.30;;;17.60;;
38653;SDS011;24413;52.450;20.706;2022-10-26T12:05:59;22.80;;;17.15;;
38653;SDS011;24413;52.450;20.706;2022-10-26T12:10:54;34.10;;;20.95;;
38653;SDS011;24413;52.450;20.706;2022-10-26T12:13:34;33.40;;;20.65;;
38653;SDS011;24413;52.450;20.706;2022-10-26T12:20:57;31.23;;;21.10;;
38653;SDS011;24413;52.450;20.706;2022-10-26T12:23:27;39.83;;;21.20;;
38653;SDS011;24413;52.450;20.706;2022-10-26T12:26:13;31.58;;;19.98;;
38653;SDS011;24413;52.450;20.706;2022-10-26T12:33:49;28.27;;;19.08;;
38653;SDS011;24413;52.450;20.706;2022-10-26T12:39:29;29.58;;;19.42;;
38653;SDS011;24413;52.450;20.706;2022-10-26T12:47:24;28.05;;;21.42;;
38653;SDS011;24413;52.450;20.706;2022-10-26T12:52:20;31.27;;;18.97;;
38653;SDS011;24413;52.450;20.706;2022-10-26T12:54:50;26.67;;;19.73;;
38653;SDS011;24413;52.450;20.706;2022-10-26T12:57:27;28.70;;;18.77;;
38653;SDS011;24413;52.450;20.706;2022-10-26T12:59:57;36.33;;;20.55;;
38653;SDS011;24413;52.450;20.706;2022-10-26T13:07:48;31.83;;;19.88;;
38653;SDS011;24413;52.450;20.706;2022-10-26T13:12:55;34.97;;;22.67;;
38653;SDS011;24413;52.450;20.706;2022-10-26T13:20:36;34.88;;;24.15;;
38653;SDS011;24413;52.450;20.706;2022-10-26T13:23:02;32.33;;;21.23;;
38653;SDS011;24413;52.450;20.706;2022-10-26T13:25:28;28.45;;;20.13;;
38653;SDS011;24413;52.450;20.706;2022-10-26T13:27:58;28.23;;;19.77;;
38653;SDS011;24413;52.450;20.706;2022-10-26T13:32:51;30.38;;;20.75;;
38653;SDS011;24413;52.450;20.706;2022-10-26T13:35:17;32.08;;;19.40;;
38653;SDS011;24413;52.450;20.706;2022-10-26T13:37:44;31.25;;;21.00;;
38653;SDS011;24413;52.450;20.706;2022-10-26T13:40:12;31.42;;;20.83;;
38653;SDS011;24413;52.450;20.706;2022-10-26T13:42:46;25.20;;;18.58;;
38653;SDS011;24413;52.450;20.706;2022-10-26T13:45:23;23.17;;;16.38;;
38653;SDS011;24413;52.450;20.706;2022-10-26T13:47:52;36.88;;;22.08;;
38653;SDS011;24413;52.450;20.706;2022-10-26T13:50:21;38.05;;;23.52;;
38653;SDS011;24413;52.450;20.706;2022-10-26T13:52:49;61.97;;;33.20;;
38653;SDS011;24413;52.450;20.706;2022-10-26T13:57:44;35.03;;;20.30;;
38653;SDS011;24413;52.450;20.706;2022-10-26T14:02:42;32.60;;;21.80;;
38653;SDS011;24413;52.450;20.706;2022-10-26T14:05:09;32.25;;;20.90;;
38653;SDS011;24413;52.450;20.706;2022-10-26T14:10:00;31.85;;;20.75;;
38653;SDS011;24413;52.450;20.706;2022-10-26T14:12:26;38.70;;;23.05;;
38653;SDS011;24413;52.450;20.706;2022-10-26T14:14:53;38.85;;;23.38;;
38653;SDS011;24413;52.450;20.706;2022-10-26T14:17:21;36.67;;;23.70;;
38653;SDS011;24413;52.450;20.706;2022-10-26T14:19:48;42.08;;;28.35;;
38653;SDS011;24413;52.450;20.706;2022-10-26T14:22:18;38.92;;;30.20;;
38653;SDS011;24413;52.450;20.706;2022-10-26T14:24:49;39.33;;;26.75;;
38653;SDS011;24413;52.450;20.706;2022-10-26T14:27:19;43.85;;;26.27;;
38653;SDS011;24413;52.450;20.706;2022-10-26T14:29:44;35.58;;;23.40;;
38653;SDS011;24413;52.450;20.706;2022-10-26T14:32:24;44.97;;;37.08;;
38653;SDS011;24413;52.450;20.706;2022-10-26T14:34:50;44.92;;;28.17;;
38653;SDS011;24413;52.450;20.706;2022-10-26T14:37:20;43.45;;;25.77;;
38653;SDS011;24413;52.450;20.706;2022-10-26T14:39:48;40.03;;;26.65;;
38653;SDS011;24413;52.450;20.706;2022-10-26T14:42:24;40.97;;;22.08;;
38653;SDS011;24413;52.450;20.706;2022-10-26T14:44:51;31.98;;;21.55;;
38653;SDS011;24413;52.450;20.706;2022-10-26T14:47:23;34.25;;;23.10;;
38653;SDS011;24413;52.450;20.706;2022-10-26T14:49:49;38.22;;;27.50;;
38653;SDS011;24413;52.450;20.706;2022-10-26T14:52:31;55.20;;;27.95;;
38653;SDS011;24413;52.450;20.706;2022-10-26T14:55:01;36.10;;;23.88;;
38653;SDS011;24413;52.450;20.706;2022-10-26T14:57:30;36.38;;;25.05;;
38653;SDS011;24413;52.450;20.706;2022-10-26T14:59:59;37.47;;;22.80;;
38653;SDS011;24413;52.450;20.706;2022-10-26T15:02:25;33.08;;;22.75;;
38653;SDS011;24413;52.450;20.706;2022-10-26T15:04:55;36.55;;;21.65;;
38653;SDS011;24413;52.450;20.706;2022-10-26T15:07:21;32.83;;;21.70;;
38653;SDS011;24413;52.450;20.706;2022-10-26T15:09:47;33.22;;;21.27;;
38653;SDS011;24413;52.450;20.706;2022-10-26T15:14:44;33.05;;;22.27;;
38653;SDS011;24413;52.450;20.706;2022-10-26T15:17:14;42.42;;;28.40;;
38653;SDS011;24413;52.450;20.706;2022-10-26T15:19:43;40.63;;;24.00;;
38653;SDS011;24413;52.450;20.706;2022-10-26T15:22:19;42.95;;;26.52;;
38653;SDS011;24413;52.450;20.706;2022-10-26T15:24:48;34.33;;;24.85;;
38653;SDS011;24413;52.450;20.706;2022-10-26T15:27:14;52.53;;;29.80;;
38653;SDS011;24413;52.450;20.706;2022-10-26T15:29:43;92.55;;;43.47;;
38653;SDS011;24413;52.450;20.706;2022-10-26T15:37:33;57.67;;;37.30;;
38653;SDS011;24413;52.450;20.706;2022-10-26T15:39:59;66.93;;;42.03;;
38653;SDS011;24413;52.450;20.706;2022-10-26T15:42:24;90.97;;;54.67;;
38653;SDS011;24413;52.450;20.706;2022-10-26T15:44:52;80.20;;;56.03;;
38653;SDS011;24413;52.450;20.706;2022-10-26T15:47:17;64.13;;;42.25;;
38653;SDS011;24413;52.450;20.706;2022-10-26T15:49:45;75.05;;;46.40;;
38653;SDS011;24413;52.450;20.706;2022-10-26T15:52:11;54.67;;;35.42;;
38653;SDS011;24413;52.450;20.706;2022-10-26T15:54:36;51.65;;;33.55;;
38653;SDS011;24413;52.450;20.706;2022-10-26T15:57:01;55.37;;;33.13;;
38653;SDS011;24413;52.450;20.706;2022-10-26T15:59:27;56.33;;;34.83;;
38653;SDS011;24413;52.450;20.706;2022-10-26T16:01:52;71.77;;;36.93;;
38653;SDS011;24413;52.450;20.706;2022-10-26T16:04:17;58.33;;;37.17;;
38653;SDS011;24413;52.450;20.706;2022-10-26T16:06:43;53.93;;;35.27;;
38653;SDS011;24413;52.450;20.706;2022-10-26T16:09:11;49.95;;;33.63;;
38653;SDS011;24413;52.450;20.706;2022-10-26T16:11:37;46.83;;;33.80;;
38653;SDS011;24413;52.450;20.706;2022-10-26T16:14:02;51.57;;;34.80;;
38653;SDS011;24413;52.450;20.706;2022-10-26T16:16:28;55.40;;;40.43;;
38653;SDS011;24413;52.450;20.706;2022-10-26T16:18:53;57.42;;;41.78;;
38653;SDS011;24413;52.450;20.706;2022-10-26T16:21:19;62.55;;;39.70;;
38653;SDS011;24413;52.450;20.706;2022-10-26T16:23:46;68.03;;;47.17;;
38653;SDS011;24413;52.450;20.706;2022-10-26T16:26:11;62.72;;;38.58;;
38653;SDS011;24413;52.450;20.706;2022-10-26T16:28:36;56.83;;;35.65;;